Decoded Metar for KARA (LOUISIANA in LA, USA) (IATA:ARA) | Meteo·Mobile Aviation Weather
aviador You're here:

KARA Decoded Metar

LOUISIANA in LA, USA
Report Time2018-08-20 13:53:00
UTC Time2018-08-20 14:13:23
Flight Rules vfr VFR
Wind210° at 06 kt
W.Decomp.*RWY 16: 4.1 kt HW 4.4 kt RCW
W.Rank210° ranks 23
Current wind is below 210° avg. (7.6)
Visibility9999 m
Phenomena:N/A
Clouds:N/A
Expected CloudBase > 1,600 ft AGL from Temp-Dew spread
CeilingNone
Temp29°C (ISA +14)
Dew Point25°C (79% RH)
Heat Index34.5°C
QNH1017 hPa
Density Alt1,962 ft
Elevation59 ft
Report Wrong Elevation
Raw Report
KARA 201353Z 21006KT 10SM CLR 29/25 A3003 RMK AO2 SLP168
T02890250=

Extra information for KARA:More info

Metar Taf Metar & Taf Last 4 Metars F.Rules Stats Wind Profile Meteogram Temp Stats Airport Information Weather charts Add Link Nearby VenuesMetar ALERT Operation Metar Decoded Social comments

AIRNAV info for KARA